Terminal Aerodrome Forecast
Issued by NWS

Current Version | Previous Version | Text Only | Print | Product List | Glossary On
Versions: 1 2 3 4 5 6 7 8 9 10 11 12 13 14 15 16 17 18 19 20 21 22 23 24
000
FTUS46 KOTX 221739
TAFPUW
TAF
KPUW 221739Z 2218/2318 25015G30KT P6SM VCSH SCT015 BKN020 OVC050
     FM221930 26019G31KT P6SM VCSH SCT020 BKN040 OVC060
     FM222300 26016G24KT P6SM VCSH SCT040 BKN050
     FM230200 26010KT P6SM FEW040
     FM230700 25005KT P6SM BKN010
     FM231600 15007KT P6SM SCT010 SCT150=

USA.gov is the U.S. government's official web portal to all federal, state and local government web resources and services.